createdAt,value
2023-04-12T00:01:25.073Z,7.89
2023-04-12T00:03:32.970Z,7.91
2023-04-12T00:05:40.584Z,7.92
2023-04-12T00:07:46.921Z,7.97
2023-04-12T00:09:53.830Z,8.02
2023-04-12T00:12:00.144Z,8.06
2023-04-12T00:14:07.194Z,8.1
2023-04-12T00:16:14.628Z,8.14
2023-04-12T00:18:21.638Z,8.17
2023-04-12T00:20:28.483Z,8.21
2023-04-12T00:22:34.674Z,8.22
2023-04-12T00:24:41.026Z,8.23
2023-04-12T00:26:47.562Z,8.21
2023-04-12T00:28:55.032Z,8.21
2023-04-12T00:31:01.238Z,8.22
2023-04-12T00:33:08.013Z,8.19
2023-04-12T00:35:14.338Z,8.17
2023-04-12T00:37:21.343Z,8.08
2023-04-12T00:39:28.553Z,8.01
2023-04-12T00:41:35.137Z,7.95
2023-04-12T00:43:41.318Z,7.94
2023-04-12T00:45:48.591Z,7.92
2023-04-12T00:47:55.429Z,7.86
2023-04-12T00:50:01.763Z,7.8
2023-04-12T00:52:08.485Z,7.68
2023-04-12T00:54:15.041Z,7.62
2023-04-12T00:56:21.506Z,7.58
2023-04-12T00:58:27.894Z,7.61
2023-04-12T01:00:34.770Z,7.57
2023-04-12T01:02:41.298Z,7.55
2023-04-12T01:04:52.036Z,7.48
2023-04-12T01:06:59.070Z,7.5
2023-04-12T01:09:05.725Z,7.51
2023-04-12T01:11:12.316Z,7.45
2023-04-12T01:13:19.014Z,7.45
2023-04-12T01:15:25.807Z,7.44
2023-04-12T01:17:32.660Z,7.42
2023-04-12T01:19:39.353Z,7.42
2023-04-12T01:21:46.246Z,7.4
2023-04-12T01:23:52.851Z,7.38
2023-04-12T01:25:59.817Z,7.38
2023-04-12T01:28:06.543Z,7.36
2023-04-12T01:30:13.050Z,7.36
2023-04-12T01:32:19.601Z,7.35
2023-04-12T01:34:26.031Z,7.34
2023-04-12T01:36:32.216Z,7.38
2023-04-12T01:38:38.926Z,7.39
2023-04-12T01:40:45.640Z,7.42
2023-04-12T01:42:52.408Z,7.4
2023-04-12T01:44:59.290Z,7.41
2023-04-12T01:47:06.222Z,7.42
2023-04-12T01:49:13.003Z,7.46
2023-04-12T01:51:20.264Z,7.46
2023-04-12T01:53:27.078Z,7.45
2023-04-12T01:55:33.331Z,7.45
2023-04-12T01:57:39.701Z,7.42
2023-04-12T01:59:46.073Z,7.37
2023-04-12T02:01:52.885Z,7.36
2023-04-12T02:04:00.721Z,7.4
2023-04-12T02:06:08.356Z,7.37
2023-04-12T02:08:15.343Z,7.34
2023-04-12T02:10:22.561Z,7.35
2023-04-12T02:12:28.933Z,7.36
2023-04-12T02:14:36.100Z,7.35
2023-04-12T02:16:43.093Z,7.3
2023-04-12T02:18:49.549Z,7.33
2023-04-12T02:20:56.004Z,7.33
2023-04-12T02:23:03.189Z,7.32
2023-04-12T02:25:10.386Z,7.33
2023-04-12T02:27:17.097Z,7.35
2023-04-12T02:29:23.593Z,7.31
2023-04-12T02:31:29.838Z,7.33
2023-04-12T02:33:36.258Z,7.35
2023-04-12T02:35:42.621Z,7.38
2023-04-12T02:37:49.622Z,7.35
2023-04-12T02:39:57.383Z,7.36
2023-04-12T02:42:04.018Z,7.37
2023-04-12T02:44:11.073Z,7.39
2023-04-12T02:46:17.714Z,7.4
2023-04-12T02:48:25.238Z,7.33
2023-04-12T02:50:31.943Z,7.35
2023-04-12T02:52:39.023Z,7.36
2023-04-12T02:54:45.175Z,7.43
2023-04-12T02:56:51.905Z,7.45
2023-04-12T02:58:58.346Z,7.46
2023-04-12T03:01:04.667Z,7.44
2023-04-12T03:03:12.166Z,7.42
2023-04-12T03:05:19.769Z,7.44
2023-04-12T03:07:25.937Z,7.43
2023-04-12T03:09:32.573Z,7.44
2023-04-12T03:11:39.445Z,7.45
2023-04-12T03:13:45.946Z,7.49
2023-04-12T03:15:52.308Z,7.45
2023-04-12T03:17:58.860Z,7.44
2023-04-12T03:20:05.689Z,7.45
2023-04-12T03:22:12.508Z,7.48
2023-04-12T03:24:18.913Z,7.5
2023-04-12T03:26:25.729Z,7.51
2023-04-12T03:28:32.868Z,7.51
2023-04-12T03:30:39.317Z,7.5
2023-04-12T03:32:46.079Z,7.5
2023-04-12T03:34:52.953Z,7.51
2023-04-12T03:36:59.623Z,7.48
2023-04-12T03:39:06.200Z,7.49
2023-04-12T03:41:13.258Z,7.5
2023-04-12T03:43:19.507Z,7.5
2023-04-12T03:45:26.339Z,7.46
2023-04-12T03:47:33.325Z,7.47
2023-04-12T03:49:39.707Z,7.51
2023-04-12T03:51:46.254Z,7.51
2023-04-12T03:53:52.842Z,7.53
2023-04-12T03:56:01.072Z,7.55
2023-04-12T03:58:07.936Z,7.56
2023-04-12T04:00:15.022Z,7.57
2023-04-12T04:02:21.644Z,7.56
2023-04-12T04:04:28.987Z,7.54
2023-04-12T04:06:35.830Z,7.52
2023-04-12T04:08:42.377Z,7.55
2023-04-12T04:10:48.846Z,7.52
2023-04-12T04:12:55.650Z,7.53
2023-04-12T04:15:01.967Z,7.51
2023-04-12T04:17:08.649Z,7.52
2023-04-12T04:19:15.452Z,7.53
2023-04-12T04:21:21.996Z,7.53
2023-04-12T04:23:28.540Z,7.54
2023-04-12T04:25:35.080Z,7.58
2023-04-12T04:27:41.864Z,7.59
2023-04-12T04:29:48.545Z,7.57
2023-04-12T04:31:54.963Z,7.54
2023-04-12T04:34:02.010Z,7.55
2023-04-12T04:36:19.352Z,7.54
2023-04-12T04:38:25.962Z,7.55
2023-04-12T04:40:32.222Z,7.59
2023-04-12T04:42:38.974Z,7.57
2023-04-12T04:44:45.412Z,7.54
2023-04-12T04:46:51.967Z,7.52
2023-04-12T04:48:58.548Z,7.57
2023-04-12T04:51:05.143Z,7.6
2023-04-12T04:53:11.835Z,7.56
2023-04-12T04:55:18.549Z,7.5
2023-04-12T04:57:25.084Z,7.55
2023-04-12T04:59:32.110Z,7.56
2023-04-12T05:01:43.380Z,7.62
2023-04-12T05:03:50.412Z,7.66
2023-04-12T05:05:58.478Z,7.73
2023-04-12T05:08:04.915Z,7.72
2023-04-12T05:10:11.984Z,7.75
2023-04-12T05:12:18.821Z,7.79
2023-04-12T05:14:33.930Z,7.86
2023-04-12T05:17:13.832Z,7.86
2023-04-12T05:19:20.818Z,7.92
2023-04-12T05:21:27.520Z,7.97
2023-04-12T05:23:34.134Z,8.04
2023-04-12T05:25:40.779Z,8.06
2023-04-12T05:27:49.265Z,8.06
2023-04-12T05:29:58.168Z,8.08
2023-04-12T05:32:04.934Z,8.16
2023-04-12T05:34:11.127Z,8.16
2023-04-12T05:36:17.782Z,8.14
2023-04-12T05:38:25.161Z,8.21
2023-04-12T05:40:32.232Z,8.26
2023-04-12T05:42:38.651Z,8.18
2023-04-12T05:44:45.814Z,8.15
2023-04-12T05:46:55.175Z,8.18
2023-04-12T05:49:11.315Z,8.18
2023-04-12T05:51:21.169Z,8.23
2023-04-12T05:53:46.398Z,8.27
2023-04-12T05:55:53.462Z,8.35
2023-04-12T05:58:00.141Z,8.31
2023-04-12T06:00:06.582Z,8.32
2023-04-12T06:02:13.106Z,8.42
2023-04-12T06:04:20.835Z,8.42
2023-04-12T06:06:44.525Z,8.5
2023-04-12T06:08:51.640Z,8.51
2023-04-12T06:10:58.424Z,8.47
2023-04-12T06:13:05.041Z,8.53
2023-04-12T06:15:11.855Z,8.67
2023-04-12T06:17:18.588Z,8.71
2023-04-12T06:19:24.925Z,8.75
2023-04-12T06:21:31.220Z,8.8
2023-04-12T06:23:37.913Z,8.64
2023-04-12T06:25:44.222Z,8.53
2023-04-12T06:27:51.146Z,8.54
2023-04-12T06:29:57.981Z,8.63
2023-04-12T06:32:04.306Z,8.71
2023-04-12T06:34:11.152Z,8.57
2023-04-12T06:36:17.706Z,8.58
2023-04-12T06:38:24.219Z,8.63
2023-04-12T06:40:30.524Z,8.7
2023-04-12T06:42:37.064Z,8.67
2023-04-12T06:44:43.242Z,8.67
2023-04-12T06:46:50.269Z,8.7
2023-04-12T06:48:57.042Z,8.74
2023-04-12T06:51:04.834Z,8.66
2023-04-12T06:53:11.787Z,8.55
2023-04-12T06:55:19.760Z,8.5
2023-04-12T06:57:26.588Z,8.61
2023-04-12T06:59:33.852Z,8.76
2023-04-12T07:01:41.911Z,8.8
2023-04-12T07:03:49.298Z,8.78
2023-04-12T07:05:56.290Z,8.8
2023-04-12T07:08:09.894Z,8.82
2023-04-12T07:10:16.357Z,9.01
2023-04-12T07:12:23.589Z,8.98
2023-04-12T07:14:30.373Z,9.09
2023-04-12T07:16:37.092Z,9
2023-04-12T07:18:44.158Z,8.91
2023-04-12T07:20:50.921Z,8.98
2023-04-12T07:22:57.739Z,8.94
2023-04-12T07:25:04.094Z,8.95
2023-04-12T07:29:31.536Z,9.12
2023-04-12T07:31:38.638Z,9.17
2023-04-12T07:33:46.508Z,9.27
2023-04-12T07:35:54.568Z,9.35
2023-04-12T07:38:01.828Z,9.35
2023-04-12T07:40:08.564Z,9.45
2023-04-12T07:42:14.970Z,9.64
2023-04-12T07:44:21.469Z,9.46
2023-04-12T07:46:28.381Z,9.47
2023-04-12T07:48:35.360Z,9.42
2023-04-12T07:50:44.264Z,9.47
2023-04-12T07:52:51.307Z,9.42
2023-04-12T07:54:57.845Z,9.35
2023-04-12T07:57:04.170Z,9.35
2023-04-12T07:59:10.641Z,9.23
2023-04-12T08:01:17.241Z,9.29
2023-04-12T08:03:24.203Z,9.21
2023-04-12T08:05:31.962Z,9.07
2023-04-12T08:07:38.688Z,9.03
2023-04-12T08:09:46.441Z,9
2023-04-12T08:11:53.641Z,9.19
2023-04-12T08:14:00.091Z,9.33
2023-04-12T08:16:06.891Z,9.21
2023-04-12T08:18:13.713Z,9.23
2023-04-12T08:20:20.178Z,9.23
2023-04-12T08:22:27.291Z,9.28
2023-04-12T08:24:33.625Z,9.34
2023-04-12T08:26:40.393Z,9.36
2023-04-12T08:28:47.578Z,9.58
2023-04-12T08:30:55.109Z,9.65
2023-04-12T08:33:02.376Z,9.74
2023-04-12T08:35:11.030Z,9.71
2023-04-12T08:37:17.875Z,9.84
2023-04-12T08:39:25.960Z,9.83
2023-04-12T08:41:32.824Z,9.91
2023-04-12T08:43:41.475Z,10
2023-04-12T08:46:01.700Z,10.03
2023-04-12T08:48:08.644Z,10.18
2023-04-12T08:50:15.874Z,10.32
2023-04-12T08:52:23.410Z,10.68
2023-04-12T08:54:29.922Z,10.73
2023-04-12T08:56:36.933Z,10.83
2023-04-12T08:58:43.796Z,10.6
2023-04-12T09:00:50.472Z,10.91
2023-04-12T09:02:58.340Z,10.74
2023-04-12T09:05:07.168Z,10.88
2023-04-12T09:07:14.135Z,11.03
2023-04-12T09:09:21.021Z,10.84
2023-04-12T09:11:27.566Z,10.89
2023-04-12T09:13:34.168Z,11.08
2023-04-12T09:15:41.393Z,10.93
2023-04-12T09:17:48.648Z,11.04
2023-04-12T09:19:55.500Z,11.19
2023-04-12T09:22:04.550Z,11.45
2023-04-12T09:24:14.126Z,11.35
2023-04-12T09:26:21.514Z,11.6
2023-04-12T09:28:28.235Z,11.49
2023-04-12T09:30:38.734Z,11.64
2023-04-12T09:32:45.645Z,11.35
2023-04-12T09:34:52.657Z,11.19
2023-04-12T09:36:59.732Z,11.19
2023-04-12T09:39:06.567Z,11.3
2023-04-12T09:41:13.178Z,11.55
2023-04-12T09:43:28.619Z,11.63
2023-04-12T09:45:35.750Z,11.64
2023-04-12T09:47:42.992Z,11.48
2023-04-12T09:49:51.362Z,11.58
2023-04-12T09:51:59.578Z,11.67
2023-04-12T09:54:07.403Z,12.01
2023-04-12T09:56:14.272Z,12.75
2023-04-12T09:58:21.179Z,12.76
2023-04-12T10:00:28.144Z,12.13
2023-04-12T10:02:35.018Z,11.79
2023-04-12T10:04:43.136Z,11.55
2023-04-12T10:06:50.485Z,11.47
2023-04-12T10:08:57.358Z,12.01
2023-04-12T10:11:05.740Z,11.8
2023-04-12T10:13:12.546Z,11.95
2023-04-12T10:15:19.189Z,11.6
2023-04-12T10:17:25.813Z,11.71
2023-04-12T10:19:32.636Z,11.99
2023-04-12T10:21:39.350Z,11.68
2023-04-12T10:23:45.937Z,11.96
2023-04-12T10:25:54.557Z,12.23
2023-04-12T10:28:10.269Z,12.77
2023-04-12T10:30:18.352Z,12.94
2023-04-12T10:32:25.025Z,12.68
2023-04-12T10:34:33.257Z,12.91
2023-04-12T10:36:39.809Z,13.15
2023-04-12T10:38:46.466Z,13.55
2023-04-12T10:40:53.534Z,13.26
2023-04-12T10:43:00.088Z,13.49
2023-04-12T10:45:07.544Z,13.09
2023-04-12T10:47:14.254Z,12.77
2023-04-12T10:49:21.175Z,12.92
2023-04-12T10:51:28.122Z,13.01
2023-04-12T10:53:34.892Z,13.01
2023-04-12T10:55:41.820Z,13.2
2023-04-12T10:57:48.664Z,13.02
2023-04-12T11:00:10.331Z,13.16
2023-04-12T11:02:17.274Z,13.43
2023-04-12T11:04:29.219Z,13.16
2023-04-12T11:06:37.733Z,13.26
2023-04-12T11:08:44.416Z,12.9
2023-04-12T11:10:54.371Z,13.03
2023-04-12T11:13:09.845Z,13.05
2023-04-12T11:15:20.161Z,13.51
2023-04-12T11:17:27.072Z,13.26
2023-04-12T11:19:35.138Z,13.1
2023-04-12T11:21:41.805Z,13.46
2023-04-12T11:23:48.179Z,13.01
2023-04-12T11:26:09.852Z,13.2
2023-04-12T11:28:27.742Z,13.14
2023-04-12T11:30:40.732Z,12.79
2023-04-12T11:32:47.796Z,12.12
2023-04-12T11:34:54.574Z,11.86
2023-04-12T11:37:01.036Z,11.81
2023-04-12T11:39:07.889Z,12.31
2023-04-12T11:41:17.924Z,12.46
2023-04-12T11:43:24.542Z,11.95
2023-04-12T11:45:31.722Z,12.25
2023-04-12T11:47:38.333Z,12.78
2023-04-12T11:49:44.954Z,13.1
2023-04-12T11:51:51.879Z,13.26
2023-04-12T11:53:59.962Z,13.52
2023-04-12T11:56:08.808Z,13.62
2023-04-12T11:58:15.397Z,13.43
2023-04-12T12:00:22.255Z,14.46
2023-04-12T12:02:31.932Z,15.58
2023-04-12T12:05:06.867Z,16.47
2023-04-12T12:07:18.490Z,16.47
2023-04-12T12:09:28.272Z,15.24
2023-04-12T12:11:35.227Z,16.81
2023-04-12T12:13:42.980Z,17.01
2023-04-12T12:15:50.238Z,17.28
2023-04-12T12:17:57.464Z,15.42
2023-04-12T12:20:04.675Z,15.08
2023-04-12T12:22:11.400Z,14.59
2023-04-12T12:24:18.281Z,14.46
2023-04-12T12:26:25.596Z,14.55
2023-04-12T12:28:32.280Z,13.73
2023-04-12T12:30:40.241Z,14.24
2023-04-12T12:32:46.699Z,14.48
2023-04-12T12:34:53.624Z,15.12
2023-04-12T12:37:00.252Z,15.92
2023-04-12T12:39:06.647Z,16.58
2023-04-12T12:41:13.941Z,16.38
2023-04-12T12:43:20.666Z,16.07
2023-04-12T12:45:27.497Z,15.34
2023-04-12T12:47:34.055Z,14.73
2023-04-12T12:49:40.968Z,14.19
2023-04-12T12:51:48.178Z,14.18
2023-04-12T12:53:54.548Z,13.67
2023-04-12T12:56:02.055Z,13.74
2023-04-12T12:58:08.751Z,13.28
2023-04-12T13:00:15.820Z,13.55
2023-04-12T13:02:22.375Z,13.52
2023-04-12T13:04:29.861Z,13.56
2023-04-12T13:06:37.726Z,13.63
2023-04-12T13:08:44.342Z,13.4
2023-04-12T13:10:50.926Z,12.98
2023-04-12T13:12:57.917Z,12.93
2023-04-12T13:15:17.844Z,13.46
2023-04-12T13:17:30.319Z,14.22
2023-04-12T13:19:37.458Z,15.01
2023-04-12T13:21:44.273Z,15.77
2023-04-12T13:23:54.938Z,15.6
2023-04-12T13:26:04.765Z,15.44
2023-04-12T13:28:11.164Z,15
2023-04-12T13:30:17.835Z,14.84
2023-04-12T13:32:24.709Z,14.31
2023-04-12T13:34:31.607Z,14.07
2023-04-12T13:36:38.308Z,13.82
2023-04-12T13:38:44.949Z,14.02
2023-04-12T13:40:51.414Z,14.17
2023-04-12T13:42:58.120Z,14.17
2023-04-12T13:45:04.721Z,14.07
2023-04-12T13:47:11.467Z,14.01
2023-04-12T13:49:18.010Z,13.81
2023-04-12T13:51:24.524Z,14
2023-04-12T13:53:31.156Z,14.01
2023-04-12T13:55:38.226Z,13.95
2023-04-12T13:57:44.605Z,13.66
2023-04-12T13:59:51.434Z,13.03
2023-04-12T14:01:59.221Z,13.19
2023-04-12T14:04:05.952Z,13.44
2023-04-12T14:06:12.567Z,13.45
2023-04-12T14:08:19.163Z,13.27
2023-04-12T14:10:25.656Z,13.34
2023-04-12T14:12:32.279Z,13.33
2023-04-12T14:14:39.388Z,13.26
2023-04-12T14:16:46.738Z,13.4
2023-04-12T14:18:54.771Z,13.44
2023-04-12T14:21:02.834Z,13.52
2023-04-12T14:23:09.254Z,13.75
2023-04-12T14:25:16.451Z,13.58
2023-04-12T14:27:23.529Z,13.69
2023-04-12T14:29:30.358Z,13.63
2023-04-12T14:31:37.798Z,13.9
2023-04-12T14:33:45.436Z,13.78
2023-04-12T14:35:52.638Z,13.79
2023-04-12T14:37:59.138Z,13.85
2023-04-12T14:40:05.530Z,14.02
2023-04-12T14:42:12.295Z,14.11
2023-04-12T14:44:20.480Z,14.09
2023-04-12T14:46:31.366Z,14
2023-04-12T14:48:38.774Z,14.1
2023-04-12T14:50:45.285Z,14.01
2023-04-12T14:52:51.659Z,13.82
2023-04-12T14:54:58.414Z,13.75
2023-04-12T14:57:05.108Z,13.68
2023-04-12T14:59:11.555Z,13.4
2023-04-12T15:01:18.319Z,13.61
2023-04-12T15:03:25.006Z,13.43
2023-04-12T15:05:33.152Z,13.44
2023-04-12T15:07:41.109Z,13.37
2023-04-12T15:09:49.256Z,13.32
2023-04-12T15:11:55.920Z,13.36
2023-04-12T15:14:02.612Z,13.57
2023-04-12T15:16:09.584Z,13.36
2023-04-12T15:18:16.822Z,13.08
2023-04-12T15:20:24.385Z,13.18
2023-04-12T15:22:31.513Z,12.97
2023-04-12T15:24:37.958Z,13.03
2023-04-12T15:26:44.921Z,12.84
2023-04-12T15:28:52.255Z,12.88
2023-04-12T15:30:58.838Z,12.93
2023-04-12T15:33:05.745Z,12.96
2023-04-12T15:37:31.785Z,12.51
2023-04-12T15:39:38.821Z,12.36
2023-04-12T15:41:46.164Z,12.45
2023-04-12T15:43:52.708Z,12.51
2023-04-12T15:46:00.297Z,12.5
2023-04-12T15:48:07.456Z,12.46
2023-04-12T15:50:14.341Z,12.32
2023-04-12T15:52:21.434Z,12.26
2023-04-12T15:54:28.443Z,12.31
2023-04-12T15:56:35.794Z,12.27
2023-04-12T15:58:43.022Z,12.28
2023-04-12T16:00:49.618Z,12.23
2023-04-12T16:02:57.128Z,12.31
2023-04-12T16:05:05.057Z,12.33
2023-04-12T16:07:13.107Z,12.24
2023-04-12T16:09:20.154Z,12.28
2023-04-12T16:11:26.532Z,12.21
2023-04-12T16:13:33.826Z,12.14
2023-04-12T16:15:40.925Z,12.09
2023-04-12T16:17:48.990Z,12.04
2023-04-12T16:19:55.930Z,11.94
2023-04-12T16:22:03.271Z,11.96
2023-04-12T16:24:11.170Z,11.97
2023-04-12T16:26:18.380Z,12
2023-04-12T16:28:27.471Z,11.97
2023-04-12T16:30:36.756Z,11.95
2023-04-12T16:32:47.746Z,11.93
2023-04-12T16:34:55.957Z,11.86
2023-04-12T16:37:03.344Z,11.69
2023-04-12T16:39:14.520Z,11.68
2023-04-12T16:41:20.983Z,11.6
2023-04-12T16:43:27.832Z,11.5
2023-04-12T16:45:35.432Z,11.34
2023-04-12T16:47:41.978Z,11.24
2023-04-12T16:49:50.065Z,11.16
2023-04-12T16:52:01.238Z,11.01
2023-04-12T16:54:09.950Z,10.85
2023-04-12T16:56:17.708Z,10.76
2023-04-12T16:58:28.255Z,10.71
2023-04-12T17:00:35.992Z,10.66
2023-04-12T17:02:44.216Z,10.64
2023-04-12T17:05:01.198Z,10.61
2023-04-12T17:07:09.009Z,10.63
2023-04-12T17:09:18.366Z,10.62
2023-04-12T17:11:27.737Z,10.59
2023-04-12T17:13:37.889Z,10.56
2023-04-12T17:15:45.307Z,10.54
2023-04-12T17:17:52.906Z,10.57
2023-04-12T17:20:01.988Z,10.52
2023-04-12T17:22:12.745Z,10.47
2023-04-12T17:24:25.380Z,10.35
2023-04-12T17:26:36.454Z,10.21
2023-04-12T17:28:45.642Z,10.08
2023-04-12T17:30:55.222Z,9.93
2023-04-12T17:33:04.758Z,9.73
2023-04-12T17:35:12.738Z,9.59
2023-04-12T17:37:21.871Z,9.37
2023-04-12T17:39:34.291Z,9.15
2023-04-12T17:41:43.316Z,9.04
2023-04-12T17:43:52.625Z,9.09
2023-04-12T17:46:03.073Z,9.06
2023-04-12T17:48:13.848Z,9.13
2023-04-12T17:50:34.850Z,9.05
2023-04-12T17:52:43.510Z,8.89
2023-04-12T17:54:54.250Z,8.75
2023-04-12T17:57:03.704Z,8.66
2023-04-12T17:59:11.925Z,8.57
2023-04-12T18:01:23.962Z,8.45
2023-04-12T18:03:32.789Z,8.32
2023-04-12T18:05:45.390Z,8.21
2023-04-12T18:07:54.509Z,8.08
2023-04-12T18:10:04.212Z,8.01
2023-04-12T18:12:14.911Z,8.05
2023-04-12T18:14:26.092Z,8.02
2023-04-12T18:16:35.048Z,7.92
2023-04-12T18:18:44.537Z,7.87
2023-04-12T18:20:59.252Z,7.72
2023-04-12T18:23:15.253Z,7.64
2023-04-12T18:25:32.586Z,7.69
2023-04-12T18:27:45.098Z,7.65
2023-04-12T18:29:55.405Z,7.6
2023-04-12T18:32:04.427Z,7.57
2023-04-12T18:37:24.977Z,7.56
2023-04-12T18:39:39.693Z,7.52
2023-04-12T18:41:50.393Z,7.44
2023-04-12T18:44:07.353Z,7.39
2023-04-12T18:46:18.517Z,7.31
2023-04-12T18:48:33.864Z,7.24
2023-04-12T18:50:46.131Z,7.13
2023-04-12T18:53:01.092Z,7
2023-04-12T18:55:09.801Z,6.92
2023-04-12T18:57:21.415Z,6.85
2023-04-12T18:59:31.245Z,6.74
2023-04-12T19:01:44.480Z,6.69
2023-04-12T19:03:57.877Z,6.68
2023-04-12T19:06:18.027Z,6.63
2023-04-12T19:08:34.459Z,6.55
2023-04-12T19:10:49.579Z,6.53
2023-04-12T19:12:59.289Z,6.5
2023-04-12T19:15:13.029Z,6.5
2023-04-12T19:17:21.582Z,6.46
2023-04-12T19:19:36.042Z,6.45
2023-04-12T19:21:47.551Z,6.47
2023-04-12T19:23:57.224Z,6.47
2023-04-12T19:28:36.477Z,6.25
2023-04-12T19:30:51.068Z,6.09
2023-04-12T19:33:02.997Z,6
2023-04-12T19:35:16.186Z,5.94
2023-04-12T19:37:36.596Z,5.82
2023-04-12T19:39:48.400Z,5.7
2023-04-12T19:42:08.264Z,5.61
2023-04-12T19:44:18.718Z,5.61
2023-04-12T19:46:33.992Z,5.64
2023-04-12T19:48:43.286Z,5.52
2023-04-12T19:50:53.448Z,5.4
2023-04-12T19:53:02.910Z,5.28
2023-04-12T19:55:13.085Z,5.14
2023-04-12T19:57:23.782Z,5.08
2023-04-12T19:59:36.444Z,4.99
2023-04-12T20:01:44.906Z,4.89
2023-04-12T20:03:56.329Z,4.8
2023-04-12T20:06:04.922Z,4.8
2023-04-12T20:08:15.298Z,4.89
2023-04-12T20:10:26.661Z,4.83
2023-04-12T20:12:36.399Z,4.74
2023-04-12T20:14:48.788Z,4.65
2023-04-12T20:17:02.173Z,4.55
2023-04-12T20:19:12.440Z,4.44
2023-04-12T20:21:26.041Z,4.35
2023-04-12T20:23:34.951Z,4.43
2023-04-12T20:25:46.839Z,4.45
2023-04-12T20:28:01.769Z,4.41
2023-04-12T20:30:14.045Z,4.36
2023-04-12T20:32:26.812Z,4.3
2023-04-12T20:34:38.614Z,4.23
2023-04-12T20:36:48.632Z,4.11
2023-04-12T20:38:57.389Z,4.04
2023-04-12T20:41:08.485Z,3.92
2023-04-12T20:43:20.432Z,3.91
2023-04-12T20:45:32.789Z,3.87
2023-04-12T20:47:42.567Z,3.78
2023-04-12T20:49:52.504Z,3.85
2023-04-12T20:51:59.452Z,3.9
2023-04-12T20:54:09.788Z,3.93
2023-04-12T20:56:19.511Z,3.85
2023-04-12T20:58:28.100Z,3.79
2023-04-12T21:00:35.978Z,3.67
2023-04-12T21:02:44.699Z,3.57
2023-04-12T21:04:53.451Z,3.46
2023-04-12T21:07:03.439Z,3.45
2023-04-12T21:11:19.650Z,3.72
2023-04-12T21:13:26.860Z,3.86
2023-04-12T21:15:36.594Z,3.9
2023-04-12T21:17:43.240Z,3.9
2023-04-12T21:19:50.451Z,3.85
2023-04-12T21:21:58.266Z,3.75
2023-04-12T21:24:07.988Z,3.66
2023-04-12T21:26:14.560Z,3.59
2023-04-12T21:28:21.437Z,3.58
2023-04-12T21:30:28.511Z,3.56
2023-04-12T21:32:35.335Z,3.55
2023-04-12T21:34:42.204Z,3.51
2023-04-12T21:36:48.507Z,3.46
2023-04-12T21:38:56.211Z,3.39
2023-04-12T21:41:04.170Z,3.38
2023-04-12T21:43:10.934Z,3.36
2023-04-12T21:45:18.044Z,3.27
2023-04-12T21:47:25.106Z,3.16
2023-04-12T21:49:33.618Z,3.04
2023-04-12T21:51:45.976Z,3.02
2023-04-12T21:53:53.178Z,2.98
2023-04-12T21:56:00.151Z,2.91
2023-04-12T21:58:07.120Z,2.9
2023-04-12T22:00:15.154Z,2.87
2023-04-12T22:02:22.178Z,2.8
2023-04-12T22:04:29.807Z,2.71
2023-04-12T22:06:36.458Z,2.72
2023-04-12T22:08:43.606Z,2.75
2023-04-12T22:10:51.255Z,2.72
2023-04-12T22:12:59.000Z,2.65
2023-04-12T22:15:05.671Z,2.6
2023-04-12T22:17:12.505Z,2.54
2023-04-12T22:19:22.288Z,2.52
2023-04-12T22:21:29.763Z,2.46
2023-04-12T22:23:37.692Z,2.38
2023-04-12T22:25:46.984Z,2.35
2023-04-12T22:27:53.997Z,2.35
2023-04-12T22:30:00.717Z,2.31
2023-04-12T22:32:08.900Z,2.27
2023-04-12T22:34:15.657Z,2.36
2023-04-12T22:36:22.898Z,2.44
2023-04-12T22:38:34.300Z,2.46
2023-04-12T22:40:40.666Z,2.45
2023-04-12T22:42:48.060Z,2.46
2023-04-12T22:44:55.200Z,2.45
2023-04-12T22:47:02.628Z,2.44
2023-04-12T22:49:09.671Z,2.36
2023-04-12T22:51:18.547Z,2.27
2023-04-12T22:53:24.987Z,2.18
2023-04-12T22:55:35.167Z,2.05
2023-04-12T22:57:41.843Z,2.03
2023-04-12T22:59:51.498Z,2.12
2023-04-12T23:01:58.255Z,2.08
2023-04-12T23:04:07.318Z,2.03
2023-04-12T23:08:38.306Z,2.03
2023-04-12T23:10:46.917Z,1.97
2023-04-12T23:12:53.874Z,1.91
2023-04-12T23:15:01.025Z,1.84
2023-04-12T23:17:08.527Z,1.82
2023-04-12T23:19:15.123Z,1.78
2023-04-12T23:21:23.669Z,1.68
2023-04-12T23:23:30.370Z,1.59
2023-04-12T23:25:37.352Z,1.52
2023-04-12T23:27:48.245Z,1.54
2023-04-12T23:29:55.518Z,1.57
2023-04-12T23:32:05.142Z,1.55
2023-04-12T23:34:12.007Z,1.48
2023-04-12T23:36:18.901Z,1.41
2023-04-12T23:38:26.571Z,1.29
2023-04-12T23:43:03.749Z,1.36
2023-04-12T23:45:10.301Z,1.39
2023-04-12T23:47:22.652Z,1.39
2023-04-12T23:51:49.910Z,1.25
2023-04-12T23:53:57.418Z,1.32
2023-04-12T23:56:04.962Z,1.29
2023-04-12T23:58:12.811Z,1.34
